createdAt,value
2019-01-24T00:01:35.864Z,32.40
2019-01-24T00:04:05.304Z,31.53
2019-01-24T00:06:34.622Z,33.70
2019-01-24T00:09:05.527Z,33.87
2019-01-24T00:11:34.983Z,31.13
2019-01-24T00:14:04.396Z,32.47
2019-01-24T00:16:33.824Z,31.37
2019-01-24T00:19:03.185Z,35.00
2019-01-24T00:21:32.610Z,33.50
2019-01-24T00:24:02.023Z,35.23
2019-01-24T00:26:31.520Z,35.33
2019-01-24T00:29:01.023Z,38.50
2019-01-24T00:31:30.524Z,37.60
2019-01-24T00:33:59.990Z,38.27
2019-01-24T00:36:29.350Z,37.53
2019-01-24T00:38:58.686Z,42.50
2019-01-24T00:41:29.084Z,34.23
2019-01-24T00:43:58.545Z,38.17
2019-01-24T00:46:27.998Z,37.87
2019-01-24T00:48:57.363Z,38.47
2019-01-24T00:51:26.736Z,37.97
2019-01-24T00:53:56.140Z,37.97
2019-01-24T00:56:25.507Z,40.90
2019-01-24T00:58:54.966Z,35.80
2019-01-24T01:01:24.461Z,41.27
2019-01-24T01:03:53.969Z,37.27
2019-01-24T01:06:54.031Z,37.70
2019-01-24T01:09:34.914Z,37.77
2019-01-24T01:12:04.752Z,37.90
2019-01-24T01:14:35.380Z,37.30
2019-01-24T01:17:25.362Z,34.37
2019-01-24T01:19:55.004Z,34.87
2019-01-24T01:22:24.681Z,32.00
2019-01-24T01:24:54.097Z,43.50
2019-01-24T01:27:23.669Z,38.93
2019-01-24T01:29:56.037Z,42.30
2019-01-24T01:32:25.562Z,37.40
2019-01-24T01:34:55.709Z,37.23
2019-01-24T01:37:25.012Z,36.77
2019-01-24T01:39:54.542Z,37.80
2019-01-24T01:42:24.109Z,33.77
2019-01-24T01:44:53.431Z,33.97
2019-01-24T01:47:22.937Z,38.70
2019-01-24T01:49:52.525Z,35.27
2019-01-24T01:52:22.003Z,31.37
2019-01-24T01:54:51.523Z,39.33
2019-01-24T01:57:21.021Z,37.90
2019-01-24T01:59:50.524Z,32.13
2019-01-24T02:02:19.873Z,31.27
2019-01-24T02:04:49.516Z,34.17
2019-01-24T02:07:18.856Z,30.23
2019-01-24T02:09:48.250Z,37.50
2019-01-24T02:12:17.546Z,30.97
2019-01-24T02:14:46.905Z,35.93
2019-01-24T02:17:16.245Z,35.87
2019-01-24T02:19:45.609Z,37.90
2019-01-24T02:22:14.923Z,40.93
2019-01-24T02:24:44.346Z,40.80
2019-01-24T02:27:13.685Z,35.70
2019-01-24T02:29:45.065Z,37.77
2019-01-24T02:32:14.517Z,39.30
2019-01-24T02:34:49.661Z,39.83
2019-01-24T02:37:14.892Z,35.97
2019-01-24T02:39:44.318Z,37.37
2019-01-24T02:42:13.783Z,32.03
2019-01-24T02:44:43.255Z,37.33
2019-01-24T02:47:12.755Z,36.37
2019-01-24T02:49:42.183Z,33.17
2019-01-24T02:52:11.575Z,32.47
2019-01-24T02:54:40.938Z,30.57
2019-01-24T02:57:10.292Z,36.60
2019-01-24T02:59:40.285Z,36.27
2019-01-24T03:02:09.700Z,39.07
2019-01-24T03:04:39.017Z,38.00
2019-01-24T03:07:08.393Z,36.50
2019-01-24T03:09:37.850Z,33.93
2019-01-24T03:12:07.205Z,34.77
2019-01-24T03:14:36.621Z,35.78
2019-01-24T03:17:05.944Z,39.80
2019-01-24T03:19:35.396Z,39.40
2019-01-24T03:22:04.742Z,37.03
2019-01-24T03:24:34.102Z,37.27
2019-01-24T03:27:03.347Z,39.30
2019-01-24T03:29:32.667Z,36.43
2019-01-24T03:32:02.150Z,37.97
2019-01-24T03:34:31.572Z,33.07
2019-01-24T03:37:00.787Z,36.17
2019-01-24T03:39:30.210Z,37.33
2019-01-24T03:41:59.423Z,41.97
2019-01-24T03:44:29.870Z,39.53
2019-01-24T03:46:59.204Z,38.57
2019-01-24T03:49:28.657Z,37.13
2019-01-24T03:52:00.002Z,42.87
2019-01-24T03:54:29.434Z,37.03
2019-01-24T03:56:58.733Z,41.73
2019-01-24T03:59:28.054Z,38.73
2019-01-24T04:01:57.475Z,41.77
2019-01-24T04:04:26.926Z,37.67
2019-01-24T04:06:56.518Z,40.60
2019-01-24T04:09:25.920Z,38.13
2019-01-24T04:11:55.253Z,42.10
2019-01-24T04:14:24.596Z,44.63
2019-01-24T04:16:53.869Z,40.47
2019-01-24T04:19:23.346Z,38.57
2019-01-24T04:21:52.853Z,45.43
2019-01-24T04:24:22.107Z,42.37
2019-01-24T04:26:51.474Z,46.13
2019-01-24T04:29:20.936Z,50.70
2019-01-24T04:31:50.456Z,45.63
2019-01-24T04:34:19.861Z,47.40
2019-01-24T04:36:49.333Z,48.53
2019-01-24T04:39:18.754Z,47.00
2019-01-24T04:41:48.106Z,46.10
2019-01-24T04:44:17.346Z,50.80
2019-01-24T04:46:46.674Z,46.17
2019-01-24T04:49:16.374Z,50.73
2019-01-24T04:51:45.695Z,50.17
2019-01-24T04:54:15.009Z,47.10
2019-01-24T04:56:44.367Z,43.47
2019-01-24T04:59:13.854Z,51.17
2019-01-24T05:01:43.301Z,44.57
2019-01-24T05:04:12.630Z,46.83
2019-01-24T05:06:42.190Z,47.33
2019-01-24T05:09:11.526Z,48.73
2019-01-24T05:11:40.991Z,47.13
2019-01-24T05:14:10.350Z,46.40
2019-01-24T05:16:39.693Z,52.30
2019-01-24T05:19:09.033Z,51.50
2019-01-24T05:21:38.420Z,46.20
2019-01-24T05:24:07.697Z,48.10
2019-01-24T05:26:37.037Z,46.70
2019-01-24T05:29:06.496Z,51.40
2019-01-24T05:31:36.907Z,50.03
2019-01-24T05:34:06.219Z,48.73
2019-01-24T05:36:35.669Z,47.60
2019-01-24T05:39:48.595Z,46.67
2019-01-24T05:42:18.023Z,48.53
2019-01-24T05:44:47.457Z,49.73
2019-01-24T05:47:35.840Z,45.20
2019-01-24T05:50:06.350Z,51.23
2019-01-24T05:52:35.856Z,48.67
2019-01-24T05:55:42.013Z,49.80
2019-01-24T05:58:11.312Z,51.67
2019-01-24T06:00:59.644Z,49.40
2019-01-24T06:03:29.044Z,46.13
2019-01-24T06:06:35.224Z,50.70
2019-01-24T06:09:06.181Z,45.43
2019-01-24T06:11:45.702Z,47.00
2019-01-24T06:14:15.093Z,46.47
2019-01-24T06:16:44.499Z,45.30
2019-01-24T06:19:13.976Z,46.27
2019-01-24T06:22:02.340Z,49.03
2019-01-24T06:24:31.836Z,48.67
2019-01-24T06:27:01.287Z,45.17
2019-01-24T06:29:30.576Z,50.57
2019-01-24T06:32:54.297Z,49.30
2019-01-24T06:35:48.666Z,47.00
2019-01-24T06:38:25.718Z,46.73
2019-01-24T06:40:55.159Z,49.00
2019-01-24T06:46:13.158Z,49.23
2019-01-24T06:49:12.472Z,51.47
2019-01-24T06:51:41.961Z,44.70
2019-01-24T06:55:05.644Z,53.97
2019-01-24T06:57:37.050Z,44.97
2019-01-24T07:00:09.425Z,44.90
2019-01-24T07:02:46.448Z,49.13
2019-01-24T07:05:15.977Z,49.03
2019-01-24T07:11:44.596Z,47.67
2019-01-24T07:14:26.095Z,44.83
2019-01-24T07:16:55.701Z,42.60
2019-01-24T07:19:25.090Z,44.50
2019-01-24T07:21:57.157Z,49.80
2019-01-24T07:27:28.771Z,46.97
2019-01-24T07:29:58.174Z,50.33
2019-01-24T07:32:59.708Z,47.47
2019-01-24T07:35:51.131Z,44.13
2019-01-24T07:38:51.850Z,40.93
2019-01-24T07:42:00.517Z,46.37
2019-01-24T07:44:35.739Z,43.73
2019-01-24T07:47:05.188Z,45.70
2019-01-24T07:49:34.579Z,44.93
2019-01-24T07:52:04.001Z,43.50
2019-01-24T07:54:33.300Z,45.97
2019-01-24T07:57:02.658Z,46.10
2019-01-24T07:59:32.049Z,41.83
2019-01-24T08:02:01.330Z,51.67
2019-01-24T08:04:30.633Z,46.97
2019-01-24T08:06:59.883Z,45.10
2019-01-24T08:09:29.351Z,50.47
2019-01-24T08:12:35.435Z,45.70
2019-01-24T08:15:05.109Z,49.40
2019-01-24T08:17:34.841Z,44.33
2019-01-24T08:20:05.199Z,45.93
2019-01-24T08:22:34.481Z,52.17
2019-01-24T08:25:04.307Z,47.07
2019-01-24T08:27:33.830Z,49.67
2019-01-24T08:33:12.353Z,45.73
2019-01-24T08:35:41.702Z,46.57
2019-01-24T08:38:11.055Z,46.40
2019-01-24T08:40:40.609Z,45.97
2019-01-24T08:43:10.111Z,44.63
2019-01-24T08:45:39.458Z,45.17
2019-01-24T08:48:09.704Z,42.60
2019-01-24T08:50:39.116Z,51.17
2019-01-24T08:53:08.389Z,46.27
2019-01-24T08:55:40.069Z,44.43
2019-01-24T08:58:10.146Z,48.40
2019-01-24T09:00:39.812Z,48.30
2019-01-24T09:03:09.532Z,47.70
2019-01-24T09:05:39.032Z,46.37
2019-01-24T09:08:08.351Z,44.37
2019-01-24T09:10:42.803Z,46.77
2019-01-24T09:13:13.903Z,44.27
2019-01-24T09:15:43.920Z,46.53
2019-01-24T09:18:13.811Z,47.20
2019-01-24T09:20:43.360Z,46.43
2019-01-24T09:23:12.634Z,47.90
2019-01-24T09:25:42.019Z,44.83
2019-01-24T09:28:14.904Z,43.67
2019-01-24T09:30:42.748Z,47.80
2019-01-24T09:33:12.220Z,44.50
2019-01-24T09:35:41.506Z,48.83
2019-01-24T09:38:10.919Z,41.27
2019-01-24T09:40:40.380Z,45.63
2019-01-24T09:43:09.693Z,45.17
2019-01-24T09:45:41.543Z,49.27
2019-01-24T09:48:11.297Z,42.07
2019-01-24T09:50:40.691Z,46.10
2019-01-24T09:53:09.992Z,49.20
2019-01-24T09:55:39.460Z,45.30
2019-01-24T09:58:08.851Z,43.63
2019-01-24T10:00:38.864Z,47.37
2019-01-24T10:03:08.598Z,53.70
2019-01-24T10:05:37.951Z,44.80
2019-01-24T10:08:08.058Z,41.80
2019-01-24T10:10:37.531Z,44.57
2019-01-24T10:13:07.359Z,47.47
2019-01-24T10:15:37.184Z,47.20
2019-01-24T10:18:07.129Z,46.40
2019-01-24T10:20:37.533Z,43.53
2019-01-24T10:23:06.969Z,41.73
2019-01-24T10:25:38.451Z,48.70
2019-01-24T10:28:08.500Z,39.70
2019-01-24T10:30:42.699Z,46.60
2019-01-24T10:33:09.513Z,48.00
2019-01-24T10:35:38.906Z,43.57
2019-01-24T10:38:08.173Z,46.10
2019-01-24T10:40:37.716Z,45.53
2019-01-24T10:43:07.383Z,47.07
2019-01-24T10:45:36.817Z,42.13
2019-01-24T10:48:06.452Z,45.40
2019-01-24T10:50:36.924Z,47.97
2019-01-24T10:53:06.430Z,42.87
2019-01-24T10:55:35.753Z,47.70
2019-01-24T10:58:07.497Z,44.97
2019-01-24T11:00:44.722Z,45.13
2019-01-24T11:03:16.192Z,49.03
2019-01-24T11:05:46.839Z,46.43
2019-01-24T11:08:16.637Z,50.37
2019-01-24T11:10:46.151Z,42.00
2019-01-24T11:13:15.507Z,40.77
2019-01-24T11:15:45.896Z,46.60
2019-01-24T11:18:15.276Z,40.47
2019-01-24T11:20:44.734Z,45.20
2019-01-24T11:23:14.469Z,47.57
2019-01-24T11:25:43.828Z,43.80
2019-01-24T11:28:13.107Z,42.57
2019-01-24T11:30:42.590Z,39.90
2019-01-24T11:33:12.212Z,43.27
2019-01-24T11:35:41.780Z,42.83
2019-01-24T11:38:11.076Z,44.00
2019-01-24T11:40:40.513Z,47.27
2019-01-24T11:43:09.793Z,45.60
2019-01-24T11:45:43.874Z,41.87
2019-01-24T11:48:13.222Z,39.50
2019-01-24T11:50:42.602Z,47.40
2019-01-24T11:53:11.999Z,49.50
2019-01-24T11:55:41.497Z,48.60
2019-01-24T11:58:10.857Z,45.13
2019-01-24T12:00:45.756Z,43.43
2019-01-24T12:03:41.229Z,56.15
2019-01-24T12:06:12.627Z,47.20
2019-01-24T12:08:54.089Z,49.17
2019-01-24T12:11:30.430Z,41.13
2019-01-24T12:13:59.898Z,45.87
2019-01-24T12:16:29.723Z,45.30
2019-01-24T12:18:59.296Z,46.03
2019-01-24T12:21:28.690Z,45.63
2019-01-24T12:23:57.949Z,47.13
2019-01-24T12:26:27.319Z,41.43
2019-01-24T12:28:56.643Z,47.83
2019-01-24T12:31:26.105Z,44.27
2019-01-24T12:33:55.529Z,44.90
2019-01-24T12:36:24.931Z,44.53
2019-01-24T12:38:54.249Z,45.50
2019-01-24T12:41:24.709Z,40.20
2019-01-24T12:43:53.952Z,42.97
2019-01-24T12:46:23.307Z,47.03
2019-01-24T12:48:52.612Z,43.70
2019-01-24T12:51:22.074Z,46.07
2019-01-24T12:53:51.440Z,42.10
2019-01-24T12:56:21.514Z,45.17
2019-01-24T12:58:53.714Z,41.93
2019-01-24T13:01:29.412Z,48.53
2019-01-24T13:04:01.972Z,47.27
2019-01-24T13:06:32.511Z,53.78
2019-01-24T13:09:01.866Z,44.23
2019-01-24T13:11:31.352Z,41.07
2019-01-24T13:14:00.730Z,45.27
2019-01-24T13:16:30.091Z,41.77
2019-01-24T13:18:59.486Z,41.03
2019-01-24T13:21:29.029Z,38.83
2019-01-24T13:23:58.355Z,43.47
2019-01-24T13:26:27.708Z,41.83
2019-01-24T13:28:57.028Z,48.37
2019-01-24T13:31:26.333Z,42.33
2019-01-24T13:33:55.760Z,43.60
2019-01-24T13:36:25.197Z,43.77
2019-01-24T13:38:54.545Z,43.13
2019-01-24T13:41:24.064Z,54.00
2019-01-24T13:43:53.477Z,45.30
2019-01-24T13:46:22.791Z,44.57
2019-01-24T13:48:52.131Z,41.63
2019-01-24T13:51:21.508Z,41.67
2019-01-24T13:53:50.963Z,44.70
2019-01-24T13:56:20.280Z,46.30
2019-01-24T13:58:49.724Z,42.43
2019-01-24T14:01:19.179Z,39.43
2019-01-24T14:03:56.287Z,43.30
2019-01-24T14:06:25.617Z,39.30
2019-01-24T14:08:55.031Z,37.47
2019-01-24T14:11:24.494Z,45.10
2019-01-24T14:13:54.475Z,44.40
2019-01-24T14:16:23.835Z,43.27
2019-01-24T14:18:53.368Z,42.27
2019-01-24T14:21:22.683Z,43.00
2019-01-24T14:23:52.088Z,41.67
2019-01-24T14:26:21.551Z,39.63
2019-01-24T14:28:50.924Z,42.53
2019-01-24T14:31:20.375Z,39.33
2019-01-24T14:33:49.753Z,40.50
2019-01-24T14:36:25.125Z,47.48
2019-01-24T14:38:50.518Z,41.67
2019-01-24T14:41:20.716Z,38.80
2019-01-24T14:43:50.240Z,38.60
2019-01-24T14:46:19.853Z,40.30
2019-01-24T14:48:49.554Z,39.17
2019-01-24T14:51:18.906Z,40.40
2019-01-24T14:53:48.481Z,43.47
2019-01-24T14:56:17.990Z,41.57
2019-01-24T14:58:47.293Z,41.53
2019-01-24T15:01:19.691Z,37.53
2019-01-24T15:03:49.684Z,40.63
2019-01-24T15:06:19.075Z,44.03
2019-01-24T15:08:48.503Z,41.73
2019-01-24T15:11:18.007Z,56.23
2019-01-24T15:13:47.516Z,47.97
2019-01-24T15:16:17.446Z,43.70
2019-01-24T15:18:46.815Z,41.33
2019-01-24T15:21:16.273Z,38.90
2019-01-24T15:23:48.555Z,42.50
2019-01-24T15:26:18.017Z,42.53
2019-01-24T15:28:47.426Z,44.23
2019-01-24T15:31:16.934Z,46.67
2019-01-24T15:33:46.579Z,40.53
2019-01-24T15:36:16.315Z,58.00
2019-01-24T15:38:45.702Z,43.77
2019-01-24T15:41:15.092Z,39.27
2019-01-24T15:43:44.730Z,41.43
2019-01-24T15:46:14.166Z,41.63
2019-01-24T15:48:43.640Z,38.87
2019-01-24T15:51:13.128Z,41.83
2019-01-24T15:53:42.563Z,38.73
2019-01-24T15:56:12.144Z,42.20
2019-01-24T15:58:41.657Z,39.90
2019-01-24T16:01:11.250Z,43.67
2019-01-24T16:03:40.891Z,43.97
2019-01-24T16:06:10.514Z,40.10
2019-01-24T16:08:39.944Z,42.80
2019-01-24T16:11:09.713Z,43.77
2019-01-24T16:13:39.679Z,43.47
2019-01-24T16:16:09.493Z,37.90
2019-01-24T16:18:38.978Z,37.87
2019-01-24T16:21:08.476Z,42.10
2019-01-24T16:23:37.936Z,39.40
2019-01-24T16:26:07.559Z,34.70
2019-01-24T16:28:36.949Z,40.20
2019-01-24T16:31:06.756Z,37.73
2019-01-24T16:33:36.419Z,41.07
2019-01-24T16:36:06.262Z,37.63
2019-01-24T16:38:35.854Z,40.53
2019-01-24T16:41:05.715Z,39.40
2019-01-24T16:43:35.197Z,40.20
2019-01-24T16:46:04.679Z,40.57
2019-01-24T16:48:34.172Z,39.87
2019-01-24T16:51:03.769Z,39.23
2019-01-24T16:53:33.610Z,40.55
2019-01-24T16:56:03.200Z,38.00
2019-01-24T16:58:32.847Z,41.17
2019-01-24T17:01:12.682Z,41.00
2019-01-24T17:03:42.306Z,41.73
2019-01-24T17:06:12.013Z,42.10
2019-01-24T17:08:41.859Z,40.07
2019-01-24T17:11:11.494Z,43.80
2019-01-24T17:13:41.073Z,39.43
2019-01-24T17:16:10.867Z,41.67
2019-01-24T17:18:40.420Z,41.07
2019-01-24T17:21:10.011Z,39.33
2019-01-24T17:23:39.625Z,35.63
2019-01-24T17:26:09.213Z,42.37
2019-01-24T17:28:39.381Z,38.10
2019-01-24T17:31:09.060Z,41.83
2019-01-24T17:33:38.741Z,41.33
2019-01-24T17:36:08.339Z,40.83
2019-01-24T17:38:38.137Z,42.60
2019-01-24T17:41:07.779Z,38.50
2019-01-24T17:43:37.646Z,39.33
2019-01-24T17:46:07.359Z,43.23
2019-01-24T17:48:36.844Z,43.73
2019-01-24T17:51:06.476Z,38.87
2019-01-24T17:53:36.070Z,37.17
2019-01-24T17:56:05.839Z,43.57
2019-01-24T17:58:35.441Z,39.13
2019-01-24T18:01:05.412Z,43.13
2019-01-24T18:03:35.001Z,39.37
2019-01-24T18:06:04.808Z,40.73
2019-01-24T18:08:34.471Z,39.50
2019-01-24T18:11:04.133Z,43.40
2019-01-24T18:13:33.836Z,39.63
2019-01-24T18:16:03.452Z,36.10
2019-01-24T18:18:33.089Z,39.83
2019-01-24T18:21:02.788Z,35.03
2019-01-24T18:23:32.592Z,40.10
2019-01-24T18:26:02.251Z,39.00
2019-01-24T18:28:31.920Z,39.37
2019-01-24T18:31:01.743Z,37.87
2019-01-24T18:33:31.812Z,35.70
2019-01-24T18:36:01.643Z,35.27
2019-01-24T18:38:31.387Z,37.20
2019-01-24T18:41:01.113Z,40.10
2019-01-24T18:43:30.854Z,38.90
2019-01-24T18:46:02.157Z,40.87
2019-01-24T18:48:31.939Z,40.70
2019-01-24T18:51:01.734Z,40.97
2019-01-24T18:53:31.506Z,37.83
2019-01-24T18:56:01.355Z,36.83
2019-01-24T18:58:31.254Z,36.90
2019-01-24T19:01:01.104Z,39.87
2019-01-24T19:03:30.824Z,39.47
2019-01-24T19:06:00.527Z,40.87
2019-01-24T19:08:30.273Z,42.07
2019-01-24T19:11:00.018Z,41.33
2019-01-24T19:13:29.634Z,43.70
2019-01-24T19:16:00.175Z,37.57
2019-01-24T19:18:29.992Z,40.20
2019-01-24T19:20:59.779Z,39.70
2019-01-24T19:23:29.939Z,40.45
2019-01-24T19:25:59.632Z,39.80
2019-01-24T19:28:29.395Z,40.40
2019-01-24T19:30:59.199Z,36.13
2019-01-24T19:33:28.937Z,39.20
2019-01-24T19:36:00.455Z,45.70
2019-01-24T19:38:30.356Z,39.07
2019-01-24T19:41:00.137Z,41.20
2019-01-24T19:43:29.848Z,39.10
2019-01-24T19:45:59.841Z,37.83
2019-01-24T19:48:29.666Z,42.67
2019-01-24T19:50:59.393Z,40.70
2019-01-24T19:53:29.234Z,38.43
2019-01-24T19:56:00.602Z,41.27
2019-01-24T19:58:30.421Z,41.17
2019-01-24T20:01:00.282Z,37.37
2019-01-24T20:03:30.074Z,41.37
2019-01-24T20:05:59.959Z,38.37
2019-01-24T20:08:29.577Z,42.80
2019-01-24T20:10:59.277Z,38.07
2019-01-24T20:13:29.024Z,41.07
2019-01-24T20:15:58.800Z,40.70
2019-01-24T20:18:28.575Z,40.40
2019-01-24T20:20:59.555Z,41.23
2019-01-24T20:23:29.436Z,38.83
2019-01-24T20:25:59.136Z,42.47
2019-01-24T20:28:28.884Z,40.37
2019-01-24T20:30:58.560Z,40.97
2019-01-24T20:33:28.442Z,35.80
2019-01-24T20:35:59.616Z,37.60
2019-01-24T20:38:29.507Z,40.20
2019-01-24T20:40:59.290Z,38.80
2019-01-24T20:43:35.213Z,42.97
2019-01-24T20:46:00.516Z,40.00
2019-01-24T20:48:30.393Z,40.37
2019-01-24T20:51:00.314Z,44.73
2019-01-24T20:53:30.139Z,39.33
2019-01-24T20:55:59.840Z,42.60
2019-01-24T20:58:29.696Z,36.03
2019-01-24T21:00:59.387Z,35.17
2019-01-24T21:03:29.055Z,38.97
2019-01-24T21:05:58.622Z,36.70
2019-01-24T21:08:28.390Z,39.43
2019-01-24T21:10:59.914Z,42.00
2019-01-24T21:13:29.696Z,36.30
2019-01-24T21:15:59.462Z,37.50
2019-01-24T21:18:29.090Z,40.20
2019-01-24T21:20:58.792Z,35.37
2019-01-24T21:23:28.378Z,37.50
2019-01-24T21:25:59.054Z,39.03
2019-01-24T21:28:28.714Z,39.87
2019-01-24T21:30:58.411Z,38.93
2019-01-24T21:33:27.954Z,40.03
2019-01-24T21:35:57.516Z,40.33
2019-01-24T21:38:26.984Z,44.17
2019-01-24T21:40:56.531Z,43.97
2019-01-24T21:43:26.072Z,40.43
2019-01-24T21:45:55.663Z,37.67
2019-01-24T21:48:25.076Z,40.20
2019-01-24T21:50:54.464Z,43.20
2019-01-24T21:53:23.829Z,42.13
2019-01-24T21:55:53.196Z,43.60
2019-01-24T21:58:22.576Z,40.30
2019-01-24T22:00:51.994Z,43.27
2019-01-24T22:03:21.414Z,36.10
2019-01-24T22:05:50.934Z,40.77
2019-01-24T22:08:20.252Z,41.30
2019-01-24T22:10:49.554Z,40.40
2019-01-24T22:13:19.032Z,39.17
2019-01-24T22:15:48.474Z,42.87
2019-01-24T22:18:17.757Z,39.17
2019-01-24T22:20:47.169Z,40.40
2019-01-24T22:23:16.544Z,44.20
2019-01-24T22:25:45.997Z,41.03
2019-01-24T22:28:15.339Z,41.80
2019-01-24T22:30:51.882Z,44.03
2019-01-24T22:33:21.273Z,41.50
2019-01-24T22:35:50.660Z,41.73
2019-01-24T22:38:19.923Z,39.17
2019-01-24T22:40:49.309Z,42.97
2019-01-24T22:43:18.651Z,43.17
2019-01-24T22:45:48.132Z,34.47
2019-01-24T22:48:17.511Z,42.93
2019-01-24T22:50:46.944Z,40.43
2019-01-24T22:53:16.319Z,45.83
2019-01-24T22:55:45.833Z,41.57
2019-01-24T22:58:15.259Z,45.73
2019-01-24T23:01:06.155Z,38.37
2019-01-24T23:03:39.255Z,40.37
2019-01-24T23:06:08.801Z,37.80
2019-01-24T23:08:38.380Z,39.87
2019-01-24T23:11:07.798Z,41.03
2019-01-24T23:13:37.259Z,42.43
2019-01-24T23:16:07.052Z,46.00
2019-01-24T23:18:36.547Z,40.30
2019-01-24T23:21:06.317Z,37.43
2019-01-24T23:23:35.741Z,41.20
2019-01-24T23:26:05.340Z,41.97
2019-01-24T23:28:34.760Z,39.30
2019-01-24T23:31:05.196Z,37.23
2019-01-24T23:33:34.503Z,44.33
2019-01-24T23:36:04.148Z,38.73
2019-01-24T23:38:33.438Z,42.60
2019-01-24T23:41:02.843Z,40.67
2019-01-24T23:43:32.334Z,43.70
2019-01-24T23:46:01.788Z,40.93
2019-01-24T23:48:31.211Z,37.57
2019-01-24T23:51:00.675Z,40.07
2019-01-24T23:53:29.973Z,45.80
2019-01-24T23:55:59.404Z,37.63
2019-01-24T23:58:30.677Z,41.70
